»·PEaware :: N184CF KBFL-KMHV

N184CF :: KBFL-KMHV

FLIGHT INFORMATION

Flight Status: Arrived
Operator: Privately registered:
United States
More flights under this callsign
Pilot: Arik P. (45269)
Aircraft: Unknown
(P28)
More flights by this aircraft type
Origin: KBFL Meadows
United States
Destination: KMHV Mojave
United States
More flights between these airports :: More routes between these airports
Route:
File this flight plan on PilotEdge
Remarks:
Altitude:
(Current/Filed)
9,500ft
Speed:
(Current/Filed)
100kts
Departed: 24-Oct-23 07:41 PM
Arrived: 24-Oct-23 08:16 PM
Distance/Time
Traveled:
49nm/0:35
Distance/Time
To Go:
Arrived

Flight Plot

Page will automatically refresh every two minutes.


Map Options




Map Legend


Flown Route
Filed Route
Departure Airport
Arrival Airport
Navaid (VOR, NDB)
Fix

Horizontal Profiles

Position Reports

Time Latitude Longitude Heading Altitude Ground
Speed
24-Oct-23 19:22 35.428358 -119.045097 80 480ft 0kts
24-Oct-23 19:23 35.428358 -119.045097 80 480ft 0kts
24-Oct-23 19:24 35.428358 -119.045097 80 480ft 0kts
24-Oct-23 19:25 35.428358 -119.045097 80 480ft 0kts
24-Oct-23 19:26 35.428358 -119.045097 80 480ft 0kts
24-Oct-23 19:27 35.428358 -119.045097 80 480ft 0kts
24-Oct-23 19:28 35.428358 -119.045097 80 480ft 0kts
24-Oct-23 19:29 35.428358 -119.045097 80 480ft 0kts
24-Oct-23 19:30 35.428358 -119.045097 80 480ft 0kts
24-Oct-23 19:31 35.428358 -119.045097 80 480ft 0kts
24-Oct-23 19:32 35.428358 -119.045097 80 480ft 0kts
24-Oct-23 19:33 35.426320 -119.044514 178 472ft 17kts
24-Oct-23 19:34 35.425447 -119.043892 157 471ft 7kts
24-Oct-23 19:35 35.425149 -119.044291 296 472ft 0kts
24-Oct-23 19:36 35.425149 -119.044291 296 472ft 0kts
24-Oct-23 19:37 35.425396 -119.044579 284 472ft 6kts
24-Oct-23 19:38 35.425400 -119.044663 271 472ft 0kts
24-Oct-23 19:39 35.425410 -119.045153 271 472ft 20kts
24-Oct-23 19:40 35.431629 -119.053418 318 694ft 75kts
24-Oct-23 19:41 35.448210 -119.068314 1 1793ft 78kts
24-Oct-23 19:42 35.458456 -119.045942 79 2803ft 79kts
24-Oct-23 19:43 35.450113 -119.021659 149 3657ft 85kts
24-Oct-23 19:44 35.429827 -119.009150 164 4609ft 78kts
24-Oct-23 19:45 35.411835 -118.994759 107 5438ft 83kts
24-Oct-23 19:46 35.405219 -118.966844 141 6182ft 84kts
24-Oct-23 19:47 35.393865 -118.943703 92 6879ft 90kts
24-Oct-23 19:48 35.391378 -118.914509 96 7633ft 86kts
24-Oct-23 19:49 35.387169 -118.885140 136 8290ft 90kts
24-Oct-23 19:50 35.366467 -118.867537 140 8960ft 87kts
24-Oct-23 19:51 35.348973 -118.844764 128 9378ft 104kts
24-Oct-23 19:52 35.330075 -118.815617 122 9561ft 124kts
24-Oct-23 19:53 35.313938 -118.777871 111 9635ft 127kts
24-Oct-23 19:54 35.300411 -118.735573 111 9485ft 134kts
24-Oct-23 19:56 35.286841 -118.693510 112 9429ft 132kts
24-Oct-23 19:57 35.273210 -118.651374 112 9366ft 133kts
24-Oct-23 19:58 35.260027 -118.610850 115 9498ft 126kts
24-Oct-23 19:59 35.238636 -118.575512 126 9394ft 132kts
24-Oct-23 20:00 35.216162 -118.541828 149 9463ft 122kts
24-Oct-23 20:01 35.187203 -118.517826 140 9463ft 126kts
24-Oct-23 20:02 35.166670 -118.484723 126 9534ft 133kts
24-Oct-23 20:03 35.145735 -118.447592 121 9459ft 131kts
24-Oct-23 20:04 35.141350 -118.409908 63 9601ft 127kts
24-Oct-23 20:05 35.129401 -118.369025 118 9044ft 133kts
24-Oct-23 20:06 35.115043 -118.330658 101 8816ft 120kts
24-Oct-23 20:07 35.129410 -118.325750 263 8827ft 117kts
24-Oct-23 20:08 35.106815 -118.319828 95 8595ft 114kts
24-Oct-23 20:09 35.112582 -118.277925 77 7949ft 135kts
24-Oct-23 20:10 35.116632 -118.234310 90 6503ft 123kts
24-Oct-23 20:11 35.101665 -118.197254 127 4925ft 123kts
24-Oct-23 20:12 35.079381 -118.167375 134 3565ft 113kts
24-Oct-23 20:13 35.069933 -118.137006 96 3377ft 81kts
24-Oct-23 20:14 35.060166 -118.114565 188 3406ft 76kts
24-Oct-23 20:15 35.059194 -118.141717 266 2782ft 89kts
24-Oct-23 20:16 35.058412 -118.149722 137 2753ft 3kts
24-Oct-23 20:17 35.058406 -118.149716 139 2753ft 0kts
24-Oct-23 20:18 35.057588 -118.151100 268 2755ft 17kts
24-Oct-23 20:19 35.057198 -118.157961 270 2769ft 0kts
24-Oct-23 20:20 35.057198 -118.157961 270 2769ft 0kts

Navigation Log

Ident Type
Flight plan parsing failed, navigation log unavailable